createdAt,value
2018-06-14T00:01:14.052Z,67
2018-06-14T00:06:43.755Z,68
2018-06-14T00:12:13.080Z,68
2018-06-14T00:17:42.615Z,68
2018-06-14T00:23:12.135Z,68
2018-06-14T00:28:41.731Z,68
2018-06-14T00:34:11.203Z,68
2018-06-14T00:39:40.728Z,68
2018-06-14T00:45:09.244Z,68
2018-06-14T00:56:08.369Z,69
2018-06-14T01:01:36.830Z,69
2018-06-14T01:07:05.656Z,69
2018-06-14T01:12:33.879Z,69
2018-06-14T01:18:02.486Z,69
2018-06-14T01:23:31.598Z,69
2018-06-14T01:28:59.559Z,69
2018-06-14T01:34:29.051Z,70
2018-06-14T01:39:57.593Z,70
2018-06-14T01:45:27.113Z,70
2018-06-14T01:50:55.730Z,70
2018-06-14T01:56:24.266Z,70
2018-06-14T02:01:52.721Z,70
2018-06-14T02:07:22.312Z,71
2018-06-14T02:12:51.721Z,71
2018-06-14T02:18:20.377Z,71
2018-06-14T02:23:48.718Z,71
2018-06-14T02:29:17.191Z,71
2018-06-14T02:34:45.692Z,71
2018-06-14T02:40:15.194Z,71
2018-06-14T02:45:43.616Z,71
2018-06-14T02:56:41.644Z,72
2018-06-14T03:02:11.011Z,72
2018-06-14T03:07:40.486Z,72
2018-06-14T03:13:09.909Z,72
2018-06-14T03:18:39.352Z,72
2018-06-14T03:24:08.813Z,72
2018-06-14T03:29:37.315Z,72
2018-06-14T03:35:05.735Z,72
2018-06-14T03:40:35.206Z,72
2018-06-14T03:46:03.671Z,72
2018-06-14T03:51:32.112Z,73
2018-06-14T03:57:00.594Z,73
2018-06-14T04:02:29.062Z,73
2018-06-14T04:07:58.583Z,73
2018-06-14T04:13:27.156Z,73
2018-06-14T04:18:56.564Z,73
2018-06-14T04:24:24.991Z,73
2018-06-14T04:29:53.493Z,73
2018-06-14T04:35:21.994Z,73
2018-06-14T04:40:51.463Z,73
2018-06-14T04:46:20.077Z,73
2018-06-14T04:51:49.523Z,73
2018-06-14T04:57:19.194Z,73
2018-06-14T05:02:48.589Z,73
2018-06-14T05:08:18.168Z,73
2018-06-14T05:13:46.787Z,73
2018-06-14T05:13:47.261Z,73
2018-06-14T05:19:15.382Z,73
2018-06-14T05:24:44.962Z,74
2018-06-14T05:30:13.537Z,74
2018-06-14T05:35:43.152Z,74
2018-06-14T05:41:11.714Z,74
2018-06-14T05:46:41.318Z,74
2018-06-14T05:52:09.960Z,73
2018-06-14T05:57:38.602Z,74
2018-06-14T06:03:07.240Z,74
2018-06-14T06:08:35.868Z,74
2018-06-14T06:14:04.469Z,74
2018-06-14T06:19:33.123Z,74
2018-06-14T06:25:01.791Z,74
2018-06-14T06:30:31.440Z,73
2018-06-14T06:36:01.432Z,73
2018-06-14T06:41:30.793Z,73
2018-06-14T06:47:00.497Z,73
2018-06-14T06:52:29.265Z,73
2018-06-14T06:57:59.269Z,73
2018-06-14T07:03:27.785Z,73
2018-06-14T07:08:56.666Z,72
2018-06-14T07:14:25.342Z,72
2018-06-14T07:19:54.167Z,72
2018-06-14T07:25:22.878Z,72
2018-06-14T07:30:52.711Z,71
2018-06-14T07:36:22.664Z,71
2018-06-14T07:36:23.056Z,71
2018-06-14T07:41:52.307Z,71
2018-06-14T07:47:22.375Z,71
2018-06-14T07:52:50.934Z,70
2018-06-14T07:58:19.860Z,70
2018-06-14T08:03:49.616Z,69
2018-06-14T08:09:19.530Z,69
2018-06-14T08:14:49.465Z,69
2018-06-14T08:25:48.510Z,68
2018-06-14T08:31:17.246Z,67
2018-06-14T08:36:46.336Z,67
2018-06-14T08:42:15.327Z,66
2018-06-14T08:47:44.380Z,66
2018-06-14T08:53:13.576Z,66
2018-06-14T08:58:43.540Z,66
2018-06-14T09:04:13.715Z,66
2018-06-14T09:09:42.558Z,65
2018-06-14T09:15:12.667Z,65
2018-06-14T09:20:42.755Z,65
2018-06-14T09:26:12.641Z,64
2018-06-14T09:31:42.761Z,64
2018-06-14T09:37:11.873Z,63
2018-06-14T09:42:41.958Z,63
2018-06-14T09:48:12.173Z,63
2018-06-14T09:53:42.058Z,62
2018-06-14T09:59:12.090Z,62
2018-06-14T10:04:41.207Z,61
2018-06-14T10:10:10.360Z,61
2018-06-14T10:15:39.646Z,60
2018-06-14T10:21:09.585Z,60
2018-06-14T10:26:39.223Z,59
2018-06-14T10:32:07.948Z,59
2018-06-14T10:37:37.107Z,58
2018-06-14T10:43:06.237Z,58
2018-06-14T10:48:35.681Z,57
2018-06-14T10:54:05.709Z,57
2018-06-14T10:59:34.864Z,56
2018-06-14T11:05:05.138Z,56
2018-06-14T11:10:34.491Z,55
2018-06-14T11:16:04.724Z,55
2018-06-14T11:21:33.863Z,54
2018-06-14T11:27:04.241Z,54
2018-06-14T11:32:34.438Z,54
2018-06-14T11:38:03.636Z,53
2018-06-14T11:43:33.550Z,53
2018-06-14T11:49:02.415Z,52
2018-06-14T11:54:31.605Z,52
2018-06-14T12:00:02.068Z,51
2018-06-14T12:05:31.316Z,51
2018-06-14T12:11:01.675Z,51
2018-06-14T12:16:32.087Z,50
2018-06-14T12:22:01.427Z,50
2018-06-14T12:27:30.811Z,50
2018-06-14T12:33:01.234Z,50
2018-06-14T12:38:30.630Z,50
2018-06-14T12:44:00.655Z,49
2018-06-14T12:49:30.551Z,49
2018-06-14T12:55:00.763Z,49
2018-06-14T13:00:30.240Z,49
2018-06-14T13:06:00.620Z,49
2018-06-14T13:11:30.070Z,49
2018-06-14T13:17:00.388Z,49
2018-06-14T13:22:30.815Z,49
2018-06-14T13:28:01.562Z,48
2018-06-14T13:33:30.640Z,48
2018-06-14T13:39:00.215Z,48
2018-06-14T13:44:30.403Z,48
2018-06-14T13:49:59.887Z,48
2018-06-14T13:55:30.270Z,48
2018-06-14T14:01:00.742Z,47
2018-06-14T14:06:30.175Z,47
2018-06-14T14:11:59.659Z,48
2018-06-14T14:17:29.930Z,47
2018-06-14T14:23:00.294Z,47
2018-06-14T14:28:29.900Z,47
2018-06-14T14:34:00.117Z,48
2018-06-14T14:39:30.398Z,48
2018-06-14T14:45:00.742Z,48
2018-06-14T14:50:31.027Z,48
2018-06-14T14:56:01.401Z,49
2018-06-14T15:01:31.594Z,49
2018-06-14T15:07:01.820Z,49
2018-06-14T15:12:31.014Z,49
2018-06-14T15:18:00.270Z,50
2018-06-14T15:23:29.529Z,51
2018-06-14T15:28:59.688Z,51
2018-06-14T15:29:00.163Z,51
2018-06-14T15:34:28.789Z,52
2018-06-14T15:39:57.931Z,53
2018-06-14T15:45:26.987Z,55
2018-06-14T15:50:56.383Z,56
2018-06-14T15:56:26.086Z,57
2018-06-14T16:01:55.966Z,58
2018-06-14T16:07:24.865Z,59
2018-06-14T16:12:54.796Z,60
2018-06-14T16:18:23.924Z,61
2018-06-14T16:23:52.603Z,62
2018-06-14T16:29:22.472Z,62
2018-06-14T16:34:52.399Z,63
2018-06-14T16:40:21.245Z,64
2018-06-14T16:45:51.181Z,64
2018-06-14T16:51:20.963Z,64
2018-06-14T16:56:50.937Z,65
2018-06-14T17:02:19.737Z,65
2018-06-14T17:07:49.605Z,66
2018-06-14T17:13:18.476Z,66
2018-06-14T17:18:48.342Z,67
2018-06-14T17:24:18.245Z,67
2018-06-14T17:29:47.127Z,68
2018-06-14T17:35:15.862Z,68
2018-06-14T17:40:45.962Z,68
2018-06-14T17:46:15.636Z,69
2018-06-14T17:51:45.382Z,69
2018-06-14T17:57:14.228Z,69
2018-06-14T18:02:44.323Z,70
2018-06-14T18:08:14.031Z,70
2018-06-14T18:13:42.704Z,70
2018-06-14T18:19:12.582Z,71
2018-06-14T18:24:41.383Z,71
2018-06-14T18:30:10.401Z,71
2018-06-14T18:35:39.183Z,72
2018-06-14T18:35:39.641Z,72
2018-06-14T18:41:08.798Z,72
2018-06-14T18:46:37.603Z,73
2018-06-14T18:52:07.408Z,73
2018-06-14T18:57:37.424Z,73
2018-06-14T19:03:06.052Z,74
2018-06-14T19:08:34.781Z,74
2018-06-14T19:14:03.483Z,75
2018-06-14T19:19:33.246Z,75
2018-06-14T19:25:02.162Z,75
2018-06-14T19:30:30.755Z,76
2018-06-14T19:36:00.942Z,76
2018-06-14T19:41:29.275Z,76
2018-06-14T19:46:58.012Z,77
2018-06-14T19:52:26.777Z,77
2018-06-14T19:57:55.545Z,77
2018-06-14T20:03:25.323Z,77
2018-06-14T20:08:55.381Z,78
2018-06-14T20:14:24.914Z,78
2018-06-14T20:19:53.598Z,78
2018-06-14T20:25:23.271Z,78
2018-06-14T20:30:53.037Z,79
2018-06-14T20:36:21.763Z,79
2018-06-14T20:41:50.602Z,79
2018-06-14T20:47:19.285Z,79
2018-06-14T20:52:48.965Z,79
2018-06-14T20:58:18.634Z,79
2018-06-14T21:03:47.395Z,80
2018-06-14T21:09:17.115Z,80
2018-06-14T21:14:46.908Z,80
2018-06-14T21:20:15.628Z,80
2018-06-14T21:25:45.343Z,80
2018-06-14T21:31:15.168Z,80
2018-06-14T21:36:43.749Z,81
2018-06-14T21:42:13.532Z,81
2018-06-14T21:47:42.129Z,81
2018-06-14T21:53:11.836Z,81
2018-06-14T21:58:41.594Z,81
2018-06-14T22:04:11.357Z,81
2018-06-14T22:09:41.027Z,81
2018-06-14T22:15:10.747Z,82
2018-06-14T22:20:40.399Z,82
2018-06-14T22:26:09.959Z,82
2018-06-14T22:31:38.654Z,82
2018-06-14T22:37:07.390Z,82
2018-06-14T22:42:35.937Z,82
2018-06-14T22:48:04.574Z,82
2018-06-14T22:53:33.167Z,82
2018-06-14T22:59:01.792Z,82
2018-06-14T23:04:30.407Z,82
2018-06-14T23:10:00.082Z,82
2018-06-14T23:15:29.744Z,82
2018-06-14T23:20:59.255Z,82
2018-06-14T23:26:27.873Z,82
2018-06-14T23:31:57.456Z,82
2018-06-14T23:37:26.101Z,82
2018-06-14T23:42:54.637Z,82
2018-06-14T23:48:23.254Z,82
2018-06-14T23:53:51.887Z,82
2018-06-14T23:59:20.489Z,82
2018-06-14T23:59:21.451Z,82
